createdAt,value
2018-11-13T00:01:23.532Z,101438.09
2018-11-13T00:03:51.773Z,101450.17
2018-11-13T00:06:19.994Z,101458.44
2018-11-13T00:08:48.801Z,101459.37
2018-11-13T00:11:17.075Z,101459.23
2018-11-13T00:13:45.194Z,101466.47
2018-11-13T00:16:13.375Z,101458.55
2018-11-13T00:18:41.622Z,101464.23
2018-11-13T00:21:09.880Z,101473.87
2018-11-13T00:23:38.017Z,101475.67
2018-11-13T00:26:06.247Z,101474.19
2018-11-13T00:28:34.480Z,101483.48
2018-11-13T00:31:02.675Z,101496.14
2018-11-13T00:33:30.894Z,101497.39
2018-11-13T00:35:59.152Z,101504.58
2018-11-13T00:38:27.326Z,101501.30
2018-11-13T00:40:56.126Z,101496.91
2018-11-13T00:43:24.297Z,101494.84
2018-11-13T00:45:55.913Z,101498.00
2018-11-13T00:48:23.647Z,101498.97
2018-11-13T00:50:51.795Z,101488.63
2018-11-13T00:53:20.002Z,101504.00
2018-11-13T00:55:48.118Z,101498.89
2018-11-13T00:58:16.267Z,101494.57
2018-11-13T01:00:44.492Z,101488.41
2018-11-13T01:03:12.597Z,101483.38
2018-11-13T01:05:40.759Z,101480.06
2018-11-13T01:08:08.915Z,101482.28
2018-11-13T01:10:37.231Z,101479.52
2018-11-13T01:13:05.784Z,101473.86
2018-11-13T01:15:33.996Z,101479.39
2018-11-13T01:18:02.135Z,101473.16
2018-11-13T01:20:30.309Z,101476.25
2018-11-13T01:22:58.499Z,101483.95
2018-11-13T01:25:27.012Z,101484.30
2018-11-13T01:27:55.188Z,101493.85
2018-11-13T01:30:23.431Z,101488.41
2018-11-13T01:32:51.741Z,101503.44
2018-11-13T01:35:20.083Z,101505.88
2018-11-13T01:37:48.293Z,101509.42
2018-11-13T01:40:18.319Z,101516.67
2018-11-13T01:42:46.441Z,101529.23
2018-11-13T01:45:15.603Z,101536.02
2018-11-13T01:47:43.746Z,101534.52
2018-11-13T01:50:12.379Z,101528.16
2018-11-13T01:52:40.538Z,101527.36
2018-11-13T01:55:10.549Z,101518.30
2018-11-13T01:57:38.693Z,101517.44
2018-11-13T02:00:15.755Z,101528.49
2018-11-13T02:02:44.799Z,101522.38
2018-11-13T02:05:12.919Z,101521.30
2018-11-13T02:07:41.255Z,101532.16
2018-11-13T02:10:09.662Z,101533.04
2018-11-13T02:12:37.836Z,101529.76
2018-11-13T02:15:07.141Z,101523.71
2018-11-13T02:17:35.531Z,101517.63
2018-11-13T02:20:04.303Z,101531.09
2018-11-13T02:22:32.406Z,101526.21
2018-11-13T02:25:00.719Z,101530.29
2018-11-13T02:27:28.824Z,101514.17
2018-11-13T02:29:56.933Z,101539.38
2018-11-13T02:32:25.059Z,101544.69
2018-11-13T02:34:53.249Z,101533.42
2018-11-13T02:37:21.918Z,101532.45
2018-11-13T02:39:50.019Z,101527.21
2018-11-13T02:42:18.145Z,101529.34
2018-11-13T02:44:46.271Z,101537.67
2018-11-13T02:47:14.529Z,101527.69
2018-11-13T02:49:42.823Z,101549.30
2018-11-13T02:52:11.035Z,101559.99
2018-11-13T02:54:39.136Z,101539.59
2018-11-13T02:57:07.263Z,101515.69
2018-11-13T02:59:35.428Z,101520.80
2018-11-13T03:02:03.658Z,101528.59
2018-11-13T03:04:31.777Z,101523.53
2018-11-13T03:06:59.904Z,101513.53
2018-11-13T03:09:28.059Z,101525.03
2018-11-13T03:11:56.295Z,101538.66
2018-11-13T03:14:24.596Z,101539.80
2018-11-13T03:16:52.697Z,101547.20
2018-11-13T03:19:20.872Z,101545.91
2018-11-13T03:21:49.180Z,101545.66
2018-11-13T03:24:17.310Z,101541.48
2018-11-13T03:26:45.500Z,101545.90
2018-11-13T03:29:13.590Z,101543.22
2018-11-13T03:31:41.899Z,101536.59
2018-11-13T03:34:10.179Z,101533.33
2018-11-13T03:36:38.794Z,101541.34
2018-11-13T03:39:08.221Z,101550.30
2018-11-13T03:41:36.594Z,101544.78
2018-11-13T03:44:05.078Z,101558.70
2018-11-13T03:46:33.199Z,101560.19
2018-11-13T03:49:01.366Z,101561.82
2018-11-13T03:51:29.546Z,101562.79
2018-11-13T03:53:57.649Z,101561.35
2018-11-13T03:56:25.810Z,101559.41
2018-11-13T03:58:53.908Z,101549.80
2018-11-13T04:01:22.045Z,101543.48
2018-11-13T04:03:51.089Z,101542.11
2018-11-13T04:06:19.216Z,101548.36
2018-11-13T04:08:47.326Z,101539.19
2018-11-13T04:11:15.478Z,101545.93
2018-11-13T04:13:43.584Z,101540.95
2018-11-13T04:16:11.673Z,101545.37
2018-11-13T04:18:39.832Z,101534.98
2018-11-13T04:21:07.969Z,101529.89
2018-11-13T04:23:36.111Z,101513.60
2018-11-13T04:26:04.253Z,101505.88
2018-11-13T04:28:32.503Z,101518.30
2018-11-13T04:31:00.817Z,101526.00
2018-11-13T04:33:28.996Z,101521.56
2018-11-13T04:35:57.254Z,101531.56
2018-11-13T04:38:25.476Z,101531.95
2018-11-13T04:40:53.604Z,101534.77
2018-11-13T04:43:21.912Z,101540.27
2018-11-13T04:45:50.095Z,101547.39
2018-11-13T04:48:18.231Z,101548.28
2018-11-13T04:50:46.351Z,101547.64
2018-11-13T04:53:14.495Z,101545.87
2018-11-13T04:55:42.634Z,101544.59
2018-11-13T04:58:10.793Z,101541.92
2018-11-13T05:00:38.932Z,101545.37
2018-11-13T05:03:07.201Z,101554.80
2018-11-13T05:05:35.323Z,101553.56
2018-11-13T05:08:03.523Z,101554.86
2018-11-13T05:10:31.715Z,101552.67
2018-11-13T05:12:59.963Z,101551.76
2018-11-13T05:15:28.167Z,101558.25
2018-11-13T05:17:56.459Z,101550.73
2018-11-13T05:20:24.597Z,101556.16
2018-11-13T05:22:52.845Z,101550.96
2018-11-13T05:25:21.509Z,101562.15
2018-11-13T05:27:49.711Z,101563.76
2018-11-13T05:30:22.079Z,101566.13
2018-11-13T05:32:50.437Z,101558.14
2018-11-13T05:35:19.657Z,101559.91
2018-11-13T05:37:48.194Z,101570.05
2018-11-13T05:40:18.103Z,101571.10
2018-11-13T05:42:46.342Z,101575.00
2018-11-13T05:45:15.865Z,101580.45
2018-11-13T05:47:44.248Z,101559.39
2018-11-13T05:50:13.754Z,101567.45
2018-11-13T05:52:42.745Z,101575.22
2018-11-13T05:55:11.225Z,101567.02
2018-11-13T05:57:39.596Z,101570.80
2018-11-13T06:00:12.392Z,101571.00
2018-11-13T06:02:40.530Z,101570.11
2018-11-13T06:05:09.362Z,101582.16
2018-11-13T06:07:37.475Z,101590.68
2018-11-13T06:10:06.751Z,101593.11
2018-11-13T06:12:34.916Z,101583.22
2018-11-13T06:15:03.072Z,101570.06
2018-11-13T06:17:31.203Z,101575.42
2018-11-13T06:19:59.331Z,101593.88
2018-11-13T06:22:27.490Z,101578.27
2018-11-13T06:24:55.633Z,101576.86
2018-11-13T06:27:23.908Z,101581.61
2018-11-13T06:29:52.174Z,101594.58
2018-11-13T06:32:20.463Z,101597.97
2018-11-13T06:34:48.824Z,101606.68
2018-11-13T06:37:17.116Z,101616.14
2018-11-13T06:39:45.517Z,101613.14
2018-11-13T06:42:13.757Z,101606.76
2018-11-13T06:44:41.985Z,101598.03
2018-11-13T06:47:10.239Z,101610.83
2018-11-13T06:49:38.503Z,101618.42
2018-11-13T06:52:06.607Z,101623.63
2018-11-13T06:54:46.346Z,101622.33
2018-11-13T06:57:14.549Z,101618.23
2018-11-13T06:59:42.708Z,101622.52
2018-11-13T07:02:10.853Z,101629.38
2018-11-13T07:04:39.007Z,101631.52
2018-11-13T07:07:07.124Z,101631.61
2018-11-13T07:09:35.302Z,101625.91
2018-11-13T07:12:03.462Z,101625.17
2018-11-13T07:14:31.644Z,101632.39
2018-11-13T07:16:59.797Z,101635.78
2018-11-13T07:19:27.982Z,101636.95
2018-11-13T07:21:56.192Z,101645.19
2018-11-13T07:24:24.322Z,101633.37
2018-11-13T07:26:52.489Z,101633.60
2018-11-13T07:29:20.692Z,101633.36
2018-11-13T07:31:48.886Z,101635.58
2018-11-13T07:34:17.136Z,101633.30
2018-11-13T07:36:45.235Z,101650.31
2018-11-13T07:39:13.367Z,101667.98
2018-11-13T07:41:41.734Z,101671.97
2018-11-13T07:44:09.866Z,101679.02
2018-11-13T07:46:38.061Z,101696.25
2018-11-13T07:49:06.134Z,101687.67
2018-11-13T07:51:34.422Z,101678.44
2018-11-13T07:54:02.818Z,101676.49
2018-11-13T07:56:30.978Z,101673.89
2018-11-13T07:58:59.120Z,101663.64
2018-11-13T08:01:27.287Z,101659.47
2018-11-13T08:03:55.468Z,101661.27
2018-11-13T08:06:23.681Z,101660.98
2018-11-13T08:08:51.867Z,101666.98
2018-11-13T08:11:20.027Z,101670.64
2018-11-13T08:13:48.236Z,101674.43
2018-11-13T08:16:16.396Z,101670.91
2018-11-13T08:18:44.577Z,101674.67
2018-11-13T08:21:12.778Z,101687.70
2018-11-13T08:23:40.908Z,101686.59
2018-11-13T08:26:09.297Z,101690.91
2018-11-13T08:28:37.502Z,101692.46
2018-11-13T08:31:06.249Z,101692.77
2018-11-13T08:33:34.370Z,101688.87
2018-11-13T08:36:02.670Z,101691.84
2018-11-13T08:38:30.765Z,101693.45
2018-11-13T08:40:58.928Z,101692.57
2018-11-13T08:43:27.068Z,101682.83
2018-11-13T08:45:55.196Z,101680.91
2018-11-13T08:48:23.320Z,101673.86
2018-11-13T08:50:51.515Z,101681.06
2018-11-13T08:53:19.646Z,101681.53
2018-11-13T08:55:47.885Z,101691.27
2018-11-13T08:58:16.071Z,101700.62
2018-11-13T09:00:44.190Z,101701.27
2018-11-13T09:03:12.317Z,101692.62
2018-11-13T09:05:40.448Z,101695.80
2018-11-13T09:08:08.633Z,101687.50
2018-11-13T09:10:37.897Z,101704.71
2018-11-13T09:13:06.473Z,101698.89
2018-11-13T09:15:34.650Z,101712.41
2018-11-13T09:18:02.797Z,101720.04
2018-11-13T09:20:30.957Z,101720.91
2018-11-13T09:22:59.171Z,101712.86
2018-11-13T09:25:27.369Z,101727.09
2018-11-13T09:27:55.553Z,101728.25
2018-11-13T09:30:24.032Z,101730.98
2018-11-13T09:32:52.162Z,101736.61
2018-11-13T09:35:20.637Z,101741.27
2018-11-13T09:37:48.793Z,101733.03
2018-11-13T09:40:19.265Z,101734.80
2018-11-13T09:42:48.639Z,101740.83
2018-11-13T09:45:17.207Z,101743.40
2018-11-13T09:47:45.371Z,101751.20
2018-11-13T09:50:15.135Z,101750.84
2018-11-13T09:52:44.643Z,101748.33
2018-11-13T09:55:14.261Z,101744.16
2018-11-13T09:57:42.525Z,101748.67
2018-11-13T10:00:14.347Z,101755.69
2018-11-13T10:02:44.057Z,101755.26
2018-11-13T10:05:12.138Z,101751.36
2018-11-13T10:07:39.944Z,101753.92
2018-11-13T10:10:09.134Z,101760.55
2018-11-13T10:12:37.354Z,101759.04
2018-11-13T10:15:08.075Z,101759.34
2018-11-13T10:17:36.226Z,101761.57
2018-11-13T10:20:04.389Z,101767.48
2018-11-13T10:22:32.576Z,101769.25
2018-11-13T10:25:00.736Z,101768.66
2018-11-13T10:27:28.926Z,101767.78
2018-11-13T10:29:57.377Z,101769.25
2018-11-13T10:32:25.526Z,101769.88
2018-11-13T10:34:53.691Z,101762.39
2018-11-13T10:37:21.959Z,101758.92
2018-11-13T10:39:50.204Z,101753.80
2018-11-13T10:42:18.322Z,101758.74
2018-11-13T10:44:46.531Z,101769.37
2018-11-13T10:47:14.709Z,101763.28
2018-11-13T10:49:42.886Z,101764.25
2018-11-13T10:52:11.018Z,101772.39
2018-11-13T10:54:39.337Z,101770.62
2018-11-13T10:57:07.573Z,101769.97
2018-11-13T10:59:35.725Z,101772.34
2018-11-13T11:03:11.878Z,101779.23
2018-11-13T11:05:40.242Z,101777.73
2018-11-13T11:08:08.473Z,101775.55
2018-11-13T11:10:36.638Z,101777.34
2018-11-13T11:13:05.489Z,101781.92
2018-11-13T11:15:33.408Z,101777.34
2018-11-13T11:18:01.627Z,101771.84
2018-11-13T11:20:29.801Z,101775.28
2018-11-13T11:22:57.954Z,101769.52
2018-11-13T11:25:26.317Z,101773.36
2018-11-13T11:27:54.631Z,101780.06
2018-11-13T11:30:22.707Z,101787.88
2018-11-13T11:32:51.308Z,101789.05
2018-11-13T11:35:19.442Z,101795.77
2018-11-13T11:37:47.617Z,101785.06
2018-11-13T11:40:15.802Z,101783.22
2018-11-13T11:42:43.978Z,101776.70
2018-11-13T11:45:13.443Z,101778.01
2018-11-13T11:47:41.740Z,101776.87
2018-11-13T11:50:10.972Z,101776.24
2018-11-13T11:52:39.184Z,101765.14
2018-11-13T11:55:08.213Z,101764.58
2018-11-13T11:57:36.476Z,101764.45
2018-11-13T12:00:07.070Z,101785.14
2018-11-13T12:02:35.248Z,101789.55
2018-11-13T12:05:03.569Z,101788.59
2018-11-13T12:07:31.899Z,101788.86
2018-11-13T12:10:00.293Z,101788.25
2018-11-13T12:12:28.501Z,101785.48
2018-11-13T12:14:56.842Z,101786.33
2018-11-13T12:17:25.055Z,101784.39
2018-11-13T12:19:53.431Z,101784.06
2018-11-13T12:22:21.660Z,101778.41
2018-11-13T12:24:49.876Z,101767.71
2018-11-13T12:27:18.293Z,101773.32
2018-11-13T12:29:46.512Z,101769.05
2018-11-13T12:32:14.719Z,101777.03
2018-11-13T12:34:42.876Z,101779.97
2018-11-13T12:37:11.079Z,101778.32
2018-11-13T12:39:39.345Z,101778.52
2018-11-13T12:42:07.644Z,101782.36
2018-11-13T12:44:35.799Z,101778.80
2018-11-13T12:47:04.261Z,101780.36
2018-11-13T12:49:32.435Z,101774.19
2018-11-13T12:52:06.028Z,101777.84
2018-11-13T12:54:34.217Z,101782.59
2018-11-13T12:57:02.446Z,101789.11
2018-11-13T12:59:30.663Z,101790.34
2018-11-13T13:01:58.815Z,101789.64
2018-11-13T13:04:27.057Z,101801.99
2018-11-13T13:06:55.218Z,101799.01
2018-11-13T13:09:23.394Z,101801.00
2018-11-13T13:11:52.679Z,101801.34
2018-11-13T13:14:20.819Z,101801.77
2018-11-13T13:16:48.979Z,101813.24
2018-11-13T13:19:17.184Z,101808.02
2018-11-13T13:21:45.323Z,101807.79
2018-11-13T13:24:13.483Z,101801.82
2018-11-13T13:26:41.665Z,101798.83
2018-11-13T13:29:09.840Z,101814.14
2018-11-13T13:31:38.026Z,101816.00
2018-11-13T13:34:06.175Z,101823.87
2018-11-13T13:36:34.501Z,101819.95
2018-11-13T13:39:02.702Z,101823.14
2018-11-13T13:41:30.970Z,101823.28
2018-11-13T13:43:59.168Z,101824.14
2018-11-13T13:46:27.327Z,101830.08
2018-11-13T13:48:55.474Z,101836.06
2018-11-13T13:51:23.647Z,101830.99
2018-11-13T13:53:51.987Z,101833.30
2018-11-13T13:56:20.081Z,101833.92
2018-11-13T13:58:48.383Z,101837.06
2018-11-13T14:01:16.610Z,101836.80
2018-11-13T14:03:44.977Z,101846.16
2018-11-13T14:06:13.258Z,101843.36
2018-11-13T14:08:41.947Z,101850.13
2018-11-13T14:11:10.074Z,101843.09
2018-11-13T14:13:38.250Z,101846.50
2018-11-13T14:16:06.728Z,101845.97
2018-11-13T14:18:34.936Z,101842.81
2018-11-13T14:21:03.235Z,101838.56
2018-11-13T14:23:31.265Z,101841.86
2018-11-13T14:25:59.748Z,101833.07
2018-11-13T14:28:27.929Z,101844.22
2018-11-13T14:30:56.101Z,101849.44
2018-11-13T14:33:24.245Z,101850.94
2018-11-13T14:35:52.410Z,101852.23
2018-11-13T14:38:20.611Z,101857.14
2018-11-13T14:40:49.208Z,101850.00
2018-11-13T14:43:17.373Z,101851.19
2018-11-13T14:45:46.173Z,101854.81
2018-11-13T14:48:14.418Z,101859.36
2018-11-13T14:50:43.259Z,101857.97
2018-11-13T14:53:12.123Z,101855.50
2018-11-13T14:55:42.173Z,101857.47
2018-11-13T14:58:11.459Z,101863.31
2018-11-13T15:00:40.037Z,101869.48
2018-11-13T15:03:09.658Z,101875.62
2018-11-13T15:05:37.819Z,101866.88
2018-11-13T15:08:07.178Z,101867.20
2018-11-13T15:10:40.140Z,101872.22
2018-11-13T15:13:08.725Z,101880.36
2018-11-13T15:15:36.849Z,101879.39
2018-11-13T15:18:05.325Z,101886.34
2018-11-13T15:20:33.566Z,101880.56
2018-11-13T15:23:01.801Z,101881.36
2018-11-13T15:25:30.033Z,101894.79
2018-11-13T15:27:58.155Z,101895.26
2018-11-13T15:30:28.169Z,101895.56
2018-11-13T15:32:59.750Z,101903.66
2018-11-13T15:35:27.954Z,101917.14
2018-11-13T15:37:56.174Z,101928.08
2018-11-13T15:40:26.772Z,101930.19
2018-11-13T15:42:54.903Z,101904.53
2018-11-13T15:45:23.088Z,101913.06
2018-11-13T15:47:52.118Z,101911.20
2018-11-13T15:50:24.703Z,101918.31
2018-11-13T15:52:52.922Z,101919.36
2018-11-13T15:55:21.092Z,101925.34
2018-11-13T15:57:49.546Z,101928.28
2018-11-13T16:00:23.915Z,101931.36
2018-11-13T16:02:52.580Z,101927.23
2018-11-13T16:05:26.227Z,101935.97
2018-11-13T16:07:55.576Z,101944.15
2018-11-13T16:10:23.946Z,101948.25
2018-11-13T16:12:52.187Z,101950.47
2018-11-13T16:15:21.408Z,101953.87
2018-11-13T16:17:50.368Z,101952.39
2018-11-13T16:20:18.690Z,101950.94
2018-11-13T16:22:46.835Z,101947.61
2018-11-13T16:25:15.011Z,101947.13
2018-11-13T16:27:43.197Z,101947.05
2018-11-13T16:30:15.370Z,101947.77
2018-11-13T16:32:44.522Z,101942.46
2018-11-13T16:35:13.829Z,101951.50
2018-11-13T16:37:43.268Z,101949.88
2018-11-13T16:40:28.335Z,101952.22
2018-11-13T16:42:56.469Z,101948.08
2018-11-13T16:45:25.468Z,101955.20
2018-11-13T16:47:54.240Z,101958.00
2018-11-13T16:50:23.548Z,101969.20
2018-11-13T16:52:51.836Z,101963.50
2018-11-13T16:55:25.261Z,101963.50
2018-11-13T16:57:54.059Z,101976.84
2018-11-13T17:00:22.941Z,101973.27
2018-11-13T17:02:51.119Z,101975.51
2018-11-13T17:05:20.319Z,101976.58
2018-11-13T17:07:48.470Z,101967.56
2018-11-13T17:10:18.052Z,101939.56
2018-11-13T17:12:46.492Z,101966.55
2018-11-13T17:15:17.478Z,101983.79
2018-11-13T17:17:46.546Z,101987.96
2018-11-13T17:20:15.057Z,101999.52
2018-11-13T17:22:43.706Z,102000.70
2018-11-13T17:25:13.197Z,101998.77
2018-11-13T17:27:42.510Z,102003.42
2018-11-13T17:30:12.901Z,102004.30
2018-11-13T17:32:41.552Z,101998.12
2018-11-13T17:35:10.842Z,102007.31
2018-11-13T17:37:38.992Z,102010.00
2018-11-13T17:40:09.944Z,102017.57
2018-11-13T17:42:38.241Z,102022.44
2018-11-13T17:45:09.171Z,102034.55
2018-11-13T17:47:37.587Z,102031.95
2018-11-13T17:50:10.611Z,102033.98
2018-11-13T17:52:38.794Z,102038.91
2018-11-13T17:55:14.783Z,102035.73
2018-11-13T17:57:43.936Z,102035.14
2018-11-13T18:00:18.053Z,102039.55
2018-11-13T18:02:47.533Z,102052.03
2018-11-13T18:05:16.048Z,102049.27
2018-11-13T18:07:44.617Z,102048.92
2018-11-13T18:10:12.762Z,102063.05
2018-11-13T18:12:40.945Z,102060.87
2018-11-13T18:15:12.468Z,102058.94
2018-11-13T18:17:40.610Z,102068.94
2018-11-13T18:20:10.922Z,102074.03
2018-11-13T18:22:39.392Z,102079.52
2018-11-13T18:25:08.190Z,102082.02
2018-11-13T18:27:37.135Z,102087.14
2018-11-13T18:30:07.807Z,102098.05
2018-11-13T18:32:36.004Z,102100.50
2018-11-13T18:35:04.325Z,102104.68
2018-11-13T18:37:32.610Z,102112.23
2018-11-13T18:40:00.736Z,102112.13
2018-11-13T18:42:28.979Z,102120.05
2018-11-13T18:44:57.347Z,102113.84
2018-11-13T18:47:25.541Z,102119.30
2018-11-13T18:49:53.782Z,102122.34
2018-11-13T18:52:22.153Z,102123.47
2018-11-13T18:54:50.406Z,102128.97
2018-11-13T18:57:18.657Z,102124.97
2018-11-13T18:59:46.916Z,102132.20
2018-11-13T19:02:15.240Z,102139.81
2018-11-13T19:04:43.745Z,102142.23
2018-11-13T19:07:13.074Z,102144.52
2018-11-13T19:09:41.295Z,102137.47
2018-11-13T19:12:09.552Z,102148.13
2018-11-13T19:14:37.822Z,102156.67
2018-11-13T19:17:06.067Z,102146.60
2018-11-13T19:19:34.439Z,102156.88
2018-11-13T19:22:02.735Z,102162.12
2018-11-13T19:24:30.991Z,102161.48
2018-11-13T19:26:59.240Z,102163.20
2018-11-13T19:29:27.590Z,102168.11
2018-11-13T19:31:55.790Z,102170.05
2018-11-13T19:34:24.390Z,102167.33
2018-11-13T19:36:52.820Z,102172.71
2018-11-13T19:39:21.319Z,102166.52
2018-11-13T19:41:49.613Z,102175.44
2018-11-13T19:44:17.949Z,102172.45
2018-11-13T19:46:46.262Z,102175.84
2018-11-13T19:49:14.579Z,102173.85
2018-11-13T19:51:43.122Z,102177.84
2018-11-13T19:54:11.412Z,102185.52
2018-11-13T19:56:40.682Z,102184.63
2018-11-13T19:59:08.999Z,102183.75
2018-11-13T20:01:37.436Z,102183.23
2018-11-13T20:04:06.235Z,102189.13
2018-11-13T20:06:34.451Z,102191.23
2018-11-13T20:09:03.445Z,102189.13
2018-11-13T20:11:35.924Z,102186.82
2018-11-13T20:14:04.209Z,102187.42
2018-11-13T20:16:32.745Z,102195.72
2018-11-13T20:19:00.998Z,102196.31
2018-11-13T20:21:29.334Z,102196.31
2018-11-13T20:23:58.563Z,102198.80
2018-11-13T20:26:26.876Z,102192.24
2018-11-13T20:28:55.393Z,102194.73
2018-11-13T20:31:23.721Z,102195.42
2018-11-13T20:33:51.970Z,102198.02
2018-11-13T20:36:20.296Z,102200.68
2018-11-13T20:38:48.587Z,102199.20
2018-11-13T20:41:16.951Z,102204.09
2018-11-13T20:43:45.230Z,102204.69
2018-11-13T20:46:13.912Z,102209.69
2018-11-13T20:48:42.853Z,102209.50
2018-11-13T20:51:11.142Z,102215.66
2018-11-13T20:53:39.540Z,102211.39
2018-11-13T20:56:07.822Z,102210.50
2018-11-13T20:58:36.123Z,102218.67
2018-11-13T21:01:04.406Z,102217.28
2018-11-13T21:03:32.707Z,102220.56
2018-11-13T21:06:01.045Z,102216.16
2018-11-13T21:08:29.281Z,102216.78
2018-11-13T21:10:59.310Z,102217.86
2018-11-13T21:13:27.265Z,102221.08
2018-11-13T21:15:55.818Z,102224.03
2018-11-13T21:18:24.273Z,102225.72
2018-11-13T21:20:52.527Z,102226.22
2018-11-13T21:23:20.817Z,102226.95
2018-11-13T21:25:49.049Z,102228.43
2018-11-13T21:28:17.410Z,102232.41
2018-11-13T21:30:45.811Z,102233.30
2018-11-13T21:33:14.703Z,102235.22
2018-11-13T21:35:43.167Z,102242.94
2018-11-13T21:38:11.431Z,102241.61
2018-11-13T21:40:39.700Z,102254.98
2018-11-13T21:43:08.078Z,102255.70
2018-11-13T21:45:36.409Z,102250.61
2018-11-13T21:48:05.216Z,102259.08
2018-11-13T21:50:33.526Z,102257.81
2018-11-13T21:53:02.590Z,102250.63
2018-11-13T21:55:30.865Z,102253.33
2018-11-13T21:57:59.015Z,102249.94
2018-11-13T22:00:29.358Z,102259.11
2018-11-13T22:03:00.004Z,102260.23
2018-11-13T22:05:29.201Z,102260.55
2018-11-13T22:07:57.458Z,102267.05
2018-11-13T22:10:25.601Z,102268.92
2018-11-13T22:12:54.138Z,102275.52
2018-11-13T22:15:23.481Z,102272.52
2018-11-13T22:17:51.535Z,102282.65
2018-11-13T22:20:20.431Z,102283.45
2018-11-13T22:22:49.523Z,102279.20
2018-11-13T22:25:21.001Z,102281.17
2018-11-13T22:27:50.352Z,102285.32
2018-11-13T22:30:21.802Z,102279.25
2018-11-13T22:32:49.977Z,102282.07
2018-11-13T22:35:18.713Z,102286.73
2018-11-13T22:37:47.011Z,102280.20
2018-11-13T22:40:16.870Z,102290.76
2018-11-13T22:42:45.245Z,102285.41
2018-11-13T22:45:16.663Z,102292.53
2018-11-13T22:47:44.896Z,102295.10
2018-11-13T22:50:16.333Z,102298.67
2018-11-13T22:52:44.900Z,102293.83
2018-11-13T22:55:13.821Z,102292.88
2018-11-13T22:57:42.951Z,102297.45
2018-11-13T23:00:15.767Z,102297.09
2018-11-13T23:02:43.801Z,102301.67
2018-11-13T23:05:11.976Z,102306.31
2018-11-13T23:07:40.183Z,102306.80
2018-11-13T23:10:10.218Z,102299.30
2018-11-13T23:12:38.526Z,102304.53
2018-11-13T23:15:09.038Z,102310.03
2018-11-13T23:17:37.162Z,102307.39
2018-11-13T23:43:06.192Z,102322.48
2018-11-13T23:45:34.602Z,102326.66
2018-11-13T23:48:02.805Z,102320.67
2018-11-13T23:50:31.059Z,102331.23
2018-11-13T23:52:59.489Z,102334.03
2018-11-13T23:55:27.876Z,102335.56
2018-11-13T23:57:56.053Z,102342.55
